Terminal Aerodrome Forecast
Issued by NWS Shreveport, LA

Current Version | Previous Version | Text Only | Print | Product List | Glossary On
Versions: 1 2 3 4 5 6 7 8 9 10 11 12 13
000
FTUS44 KSHV 170500
TAFGGG
TAF
KGGG 170535Z 1706/1806 VRB03KT P6SM BKN120 BKN250
      TEMPO 1711/1714 4SM BR BKN010
     FM171400 VRB03KT P6SM BKN025
     FM171600 17005KT P6SM FEW035 BKN250
     FM171800 17007KT P6SM SCT050 BKN120 BKN250
     FM180200 17004KT P6SM BKN120 BKN250=

USA.gov is the U.S. government's official web portal to all federal, state and local government web resources and services.